createdAt,value
2017-08-29T00:00:21.329Z,86.24
2017-08-29T00:02:49.652Z,86.12
2017-08-29T00:05:18.006Z,86.26
2017-08-29T00:07:46.348Z,85.63
2017-08-29T00:10:14.690Z,86.02
2017-08-29T00:12:43.081Z,86.90
2017-08-29T00:15:11.421Z,87.30
2017-08-29T00:17:39.773Z,86.70
2017-08-29T00:20:08.106Z,86.85
2017-08-29T00:22:36.466Z,86.53
2017-08-29T00:25:04.811Z,85.66
2017-08-29T00:27:33.126Z,86.79
2017-08-29T00:30:01.467Z,87.17
2017-08-29T00:32:29.809Z,86.67
2017-08-29T00:34:58.143Z,86.36
2017-08-29T00:37:26.475Z,87.17
2017-08-29T00:39:54.815Z,87.06
2017-08-29T00:42:23.147Z,87.36
2017-08-29T00:44:52.328Z,86.75
2017-08-29T00:47:20.674Z,87.00
2017-08-29T00:49:49.004Z,87.50
2017-08-29T00:52:17.438Z,86.64
2017-08-29T00:54:45.779Z,85.74
2017-08-29T00:57:14.112Z,86.78
2017-08-29T00:59:42.465Z,86.43
2017-08-29T01:02:10.794Z,85.71
2017-08-29T01:04:39.179Z,85.76
2017-08-29T01:07:07.508Z,87.00
2017-08-29T01:09:35.858Z,87.39
2017-08-29T01:12:04.245Z,87.30
2017-08-29T01:14:32.610Z,87.38
2017-08-29T01:17:00.977Z,87.87
2017-08-29T01:19:29.338Z,87.41
2017-08-29T01:21:57.705Z,86.80
2017-08-29T01:24:26.040Z,86.79
2017-08-29T01:26:54.376Z,87.42
2017-08-29T01:29:22.735Z,86.47
2017-08-29T01:31:51.085Z,86.63
2017-08-29T01:34:19.445Z,87.33
2017-08-29T01:36:47.764Z,87.41
2017-08-29T01:39:16.204Z,87.54
2017-08-29T01:41:44.536Z,88.04
2017-08-29T01:44:12.872Z,87.47
2017-08-29T01:46:41.236Z,87.44
2017-08-29T01:49:09.568Z,87.54
2017-08-29T01:51:37.940Z,87.47
2017-08-29T01:54:06.266Z,87.30
2017-08-29T01:56:34.613Z,87.10
2017-08-29T01:59:02.949Z,87.40
2017-08-29T02:01:31.370Z,87.41
2017-08-29T02:03:59.715Z,87.79
2017-08-29T02:06:28.054Z,87.28
2017-08-29T02:08:56.396Z,86.69
2017-08-29T02:11:24.747Z,87.62
2017-08-29T02:13:53.376Z,87.94
2017-08-29T02:16:21.713Z,88.05
2017-08-29T02:18:50.045Z,87.97
2017-08-29T02:21:18.404Z,87.99
2017-08-29T02:23:46.732Z,87.46
2017-08-29T02:26:15.090Z,87.07
2017-08-29T02:28:43.431Z,87.13
2017-08-29T02:31:11.884Z,87.83
2017-08-29T02:33:40.206Z,87.14
2017-08-29T02:36:08.538Z,87.12
2017-08-29T02:38:36.901Z,87.64
2017-08-29T02:41:05.243Z,88.01
2017-08-29T02:43:33.601Z,87.83
2017-08-29T02:46:01.941Z,87.44
2017-08-29T02:48:30.304Z,87.37
2017-08-29T02:50:58.631Z,86.83
2017-08-29T02:53:26.993Z,87.25
2017-08-29T02:55:55.346Z,88.06
2017-08-29T02:58:23.677Z,88.47
2017-08-29T03:00:52.032Z,88.42
2017-08-29T03:03:20.369Z,87.88
2017-08-29T03:05:48.998Z,87.99
2017-08-29T03:08:17.340Z,87.07
2017-08-29T03:10:45.677Z,87.32
2017-08-29T03:13:14.035Z,87.56
2017-08-29T03:15:42.385Z,86.96
2017-08-29T03:18:10.749Z,87.19
2017-08-29T03:20:39.115Z,87.31
2017-08-29T03:23:07.783Z,87.01
2017-08-29T03:25:36.149Z,86.94
2017-08-29T03:28:04.488Z,86.69
2017-08-29T03:30:32.843Z,87.58
2017-08-29T03:33:01.187Z,86.92
2017-08-29T03:35:29.560Z,86.88
2017-08-29T03:37:57.882Z,86.86
2017-08-29T03:40:26.228Z,86.96
2017-08-29T03:42:54.566Z,87.04
2017-08-29T03:45:22.924Z,87.22
2017-08-29T03:47:51.273Z,87.15
2017-08-29T03:50:19.615Z,86.48
2017-08-29T03:52:47.979Z,86.85
2017-08-29T03:55:16.316Z,86.63
2017-08-29T03:57:44.686Z,86.52
2017-08-29T04:00:13.746Z,86.50
2017-08-29T04:02:42.111Z,87.26
2017-08-29T04:05:10.479Z,86.77
2017-08-29T04:07:38.818Z,87.02
2017-08-29T04:10:07.163Z,87.08
2017-08-29T04:12:35.512Z,86.94
2017-08-29T04:15:03.931Z,87.02
2017-08-29T04:17:32.661Z,87.07
2017-08-29T04:20:01.007Z,86.57
2017-08-29T04:22:29.379Z,86.83
2017-08-29T04:24:57.734Z,87.21
2017-08-29T04:27:26.110Z,87.94
2017-08-29T04:29:54.445Z,88.22
2017-08-29T04:32:22.821Z,87.25
2017-08-29T04:35:02.360Z,86.61
2017-08-29T04:37:32.638Z,86.82
2017-08-29T04:40:00.969Z,86.90
2017-08-29T04:42:29.311Z,86.49
2017-08-29T04:44:58.372Z,86.28
2017-08-29T04:47:26.721Z,86.33
2017-08-29T04:49:55.143Z,86.27
2017-08-29T04:52:23.478Z,86.47
2017-08-29T04:54:52.273Z,87.05
2017-08-29T04:57:20.604Z,87.20
2017-08-29T04:59:48.935Z,86.78
2017-08-29T05:02:17.357Z,87.38
2017-08-29T05:04:45.693Z,87.55
2017-08-29T05:07:14.825Z,87.88
2017-08-29T05:09:43.174Z,88.12
2017-08-29T05:12:11.538Z,87.76
2017-08-29T05:14:39.885Z,88.02
2017-08-29T05:17:08.239Z,87.81
2017-08-29T05:19:36.609Z,87.93
2017-08-29T05:22:04.933Z,88.27
2017-08-29T05:24:33.676Z,88.20
2017-08-29T05:27:04.840Z,88.36
2017-08-29T05:29:33.213Z,88.65
2017-08-29T05:32:01.550Z,88.83
2017-08-29T05:34:32.557Z,88.63
2017-08-29T05:37:00.912Z,88.37
2017-08-29T05:39:29.252Z,87.75
2017-08-29T05:41:57.608Z,87.98
2017-08-29T05:44:25.946Z,88.49
2017-08-29T05:46:54.310Z,88.42
2017-08-29T05:49:22.664Z,88.72
2017-08-29T05:51:51.812Z,88.90
2017-08-29T05:54:20.192Z,88.33
2017-08-29T05:56:48.532Z,88.10
2017-08-29T05:59:16.892Z,87.75
2017-08-29T06:01:45.234Z,87.55
2017-08-29T06:04:13.591Z,87.02
2017-08-29T06:06:41.925Z,87.11
2017-08-29T06:09:10.742Z,87.79
2017-08-29T06:11:39.062Z,87.94
2017-08-29T06:14:07.398Z,88.08
2017-08-29T06:16:35.838Z,88.28
2017-08-29T06:19:04.174Z,88.36
2017-08-29T06:21:32.516Z,88.39
2017-08-29T06:24:00.858Z,87.90
2017-08-29T06:26:30.009Z,87.39
2017-08-29T06:28:58.330Z,86.84
2017-08-29T06:31:26.654Z,86.70
2017-08-29T06:33:54.992Z,87.35
2017-08-29T06:36:23.310Z,87.25
2017-08-29T06:38:51.661Z,86.94
2017-08-29T06:41:19.995Z,86.66
2017-08-29T06:43:48.362Z,86.62
2017-08-29T06:46:16.690Z,86.94
2017-08-29T06:48:45.064Z,86.53
2017-08-29T06:51:13.418Z,86.45
2017-08-29T06:53:41.753Z,86.87
2017-08-29T06:56:10.100Z,86.77
2017-08-29T06:58:39.467Z,86.18
2017-08-29T07:01:07.820Z,85.75
2017-08-29T07:03:36.166Z,85.85
2017-08-29T07:06:04.937Z,86.72
2017-08-29T07:08:33.934Z,86.36
2017-08-29T07:11:02.279Z,85.83
2017-08-29T07:13:30.621Z,85.65
2017-08-29T07:15:58.959Z,85.91
2017-08-29T07:18:27.376Z,86.38
2017-08-29T07:20:55.731Z,86.27
2017-08-29T07:23:24.332Z,85.59
2017-08-29T07:25:52.668Z,85.18
2017-08-29T07:28:20.994Z,85.13
2017-08-29T07:30:50.276Z,84.65
2017-08-29T07:33:18.620Z,84.76
2017-08-29T07:35:46.981Z,84.79
2017-08-29T07:38:15.313Z,84.40
2017-08-29T07:40:43.676Z,84.09
2017-08-29T07:43:12.062Z,84.15
2017-08-29T07:45:40.419Z,84.02
2017-08-29T07:48:08.787Z,83.92
2017-08-29T07:50:37.112Z,83.58
2017-08-29T07:53:05.471Z,83.57
2017-08-29T07:55:33.846Z,83.58
2017-08-29T07:58:02.194Z,83.41
2017-08-29T08:00:30.545Z,83.26
2017-08-29T08:02:58.876Z,83.25
2017-08-29T08:05:27.345Z,82.95
2017-08-29T08:07:55.690Z,82.76
2017-08-29T08:10:24.074Z,82.60
2017-08-29T08:12:52.423Z,82.40
2017-08-29T08:15:21.629Z,82.27
2017-08-29T08:17:49.961Z,81.98
2017-08-29T08:20:18.324Z,81.76
2017-08-29T08:22:46.639Z,81.80
2017-08-29T08:25:15.046Z,81.91
2017-08-29T08:27:43.374Z,81.77
2017-08-29T08:30:12.015Z,81.41
2017-08-29T08:32:40.379Z,81.55
2017-08-29T08:35:08.722Z,81.14
2017-08-29T08:37:37.079Z,81.08
2017-08-29T08:40:05.415Z,80.53
2017-08-29T08:42:34.210Z,79.77
2017-08-29T08:45:02.541Z,79.28
2017-08-29T08:47:31.395Z,78.57
2017-08-29T08:49:59.730Z,78.37
2017-08-29T08:52:28.141Z,78.67
2017-08-29T08:54:56.494Z,77.43
2017-08-29T08:57:24.836Z,77.04
2017-08-29T08:59:53.188Z,76.57
2017-08-29T09:02:21.524Z,76.95
2017-08-29T09:04:50.323Z,76.62
2017-08-29T09:07:18.651Z,76.67
2017-08-29T09:09:46.996Z,75.12
2017-08-29T09:12:15.341Z,73.29
2017-08-29T09:14:43.669Z,73.70
2017-08-29T09:17:12.058Z,72.72
2017-08-29T09:19:40.396Z,71.53
2017-08-29T09:22:09.028Z,71.66
2017-08-29T09:24:37.370Z,71.60
2017-08-29T09:27:05.694Z,71.08
2017-08-29T09:29:34.082Z,69.67
2017-08-29T09:32:02.514Z,70.92
2017-08-29T09:34:30.879Z,70.32
2017-08-29T09:36:59.214Z,69.95
2017-08-29T09:39:27.947Z,69.67
2017-08-29T09:41:56.278Z,70.16
2017-08-29T09:44:24.618Z,69.71
2017-08-29T09:46:52.973Z,70.27
2017-08-29T09:49:21.319Z,70.45
2017-08-29T09:51:49.688Z,70.55
2017-08-29T09:54:18.043Z,70.31
2017-08-29T09:56:46.408Z,69.54
2017-08-29T09:59:14.746Z,69.45
2017-08-29T10:01:43.100Z,69.91
2017-08-29T10:04:11.435Z,70.13
2017-08-29T10:06:39.761Z,70.32
2017-08-29T10:09:08.101Z,69.86
2017-08-29T10:11:36.428Z,70.07
2017-08-29T10:14:04.806Z,69.15
2017-08-29T10:16:33.147Z,68.58
2017-08-29T10:19:01.503Z,68.94
2017-08-29T10:21:29.832Z,69.01
2017-08-29T10:23:58.188Z,68.26
2017-08-29T10:26:26.519Z,67.16
2017-08-29T10:28:54.877Z,66.34
2017-08-29T10:31:23.195Z,66.24
2017-08-29T10:33:51.529Z,65.93
2017-08-29T10:36:19.862Z,67.14
2017-08-29T10:38:48.195Z,66.02
2017-08-29T10:41:16.523Z,66.09
2017-08-29T10:43:44.864Z,65.48
2017-08-29T10:46:13.201Z,63.64
2017-08-29T10:48:41.554Z,63.40
2017-08-29T10:51:09.933Z,63.99
2017-08-29T10:53:38.263Z,63.73
2017-08-29T10:56:06.621Z,64.18
2017-08-29T10:58:34.980Z,62.96
2017-08-29T11:01:03.331Z,62.07
2017-08-29T11:03:31.659Z,62.13
2017-08-29T11:06:00.017Z,62.39
2017-08-29T11:08:28.341Z,61.37
2017-08-29T11:10:56.690Z,60.82
2017-08-29T11:13:25.055Z,59.50
2017-08-29T11:15:53.399Z,60.20
2017-08-29T11:18:21.750Z,61.53
2017-08-29T11:20:50.101Z,59.37
2017-08-29T11:23:18.457Z,58.72
2017-08-29T11:25:46.784Z,59.22
2017-08-29T11:28:15.151Z,59.45
2017-08-29T11:30:43.552Z,59.81
2017-08-29T11:33:11.885Z,60.67
2017-08-29T11:35:40.237Z,59.83
2017-08-29T11:38:08.576Z,60.14
2017-08-29T11:40:36.915Z,60.48
2017-08-29T11:43:05.267Z,59.86
2017-08-29T11:45:33.627Z,58.50
2017-08-29T11:48:01.979Z,58.05
2017-08-29T11:50:30.337Z,57.99
2017-08-29T11:52:58.672Z,57.19
2017-08-29T11:55:27.001Z,57.71
2017-08-29T11:57:55.360Z,55.78
2017-08-29T12:00:23.692Z,56.07
2017-08-29T12:02:52.051Z,57.14
2017-08-29T12:05:20.371Z,57.94
2017-08-29T12:07:48.712Z,56.10
2017-08-29T12:10:17.064Z,56.23
2017-08-29T12:12:45.409Z,56.85
2017-08-29T12:15:13.751Z,57.17
2017-08-29T12:17:42.451Z,58.79
2017-08-29T12:20:10.815Z,58.21
2017-08-29T12:22:39.177Z,56.92
2017-08-29T12:25:07.516Z,56.09
2017-08-29T12:27:35.868Z,55.98
2017-08-29T12:30:04.218Z,56.69
2017-08-29T12:32:32.558Z,56.79
2017-08-29T12:35:01.041Z,55.52
2017-08-29T12:37:29.379Z,54.18
2017-08-29T12:39:57.733Z,52.21
2017-08-29T12:42:26.070Z,51.91
2017-08-29T12:44:54.825Z,51.36
2017-08-29T12:47:23.177Z,52.35
2017-08-29T12:49:51.509Z,52.97
2017-08-29T12:52:20.264Z,52.20
2017-08-29T12:54:48.588Z,51.05
2017-08-29T12:57:16.917Z,51.40
2017-08-29T12:59:45.279Z,52.20
2017-08-29T13:02:13.637Z,50.03
2017-08-29T13:04:42.012Z,47.41
2017-08-29T13:07:10.369Z,49.95
2017-08-29T13:09:39.033Z,49.40
2017-08-29T13:12:07.368Z,49.60
2017-08-29T13:14:35.723Z,48.60
2017-08-29T13:17:04.066Z,49.10
2017-08-29T13:19:32.402Z,50.43
2017-08-29T13:22:00.768Z,49.72
2017-08-29T13:24:29.535Z,50.10
2017-08-29T13:26:58.311Z,51.44
2017-08-29T13:29:26.649Z,51.38
2017-08-29T13:31:54.984Z,49.68
2017-08-29T13:34:23.342Z,49.90
2017-08-29T13:36:51.663Z,50.26
2017-08-29T13:39:20.276Z,48.49
2017-08-29T13:41:48.635Z,48.91
2017-08-29T13:44:17.592Z,49.37
2017-08-29T13:46:45.933Z,49.11
2017-08-29T13:49:14.298Z,49.06
2017-08-29T13:51:42.659Z,50.09
2017-08-29T13:54:11.080Z,49.59
2017-08-29T13:56:39.604Z,48.74
2017-08-29T13:59:07.947Z,48.56
2017-08-29T14:01:36.297Z,49.43
2017-08-29T14:04:04.675Z,48.19
2017-08-29T14:06:33.010Z,44.86
2017-08-29T14:09:01.364Z,44.55
2017-08-29T14:11:29.711Z,44.91
2017-08-29T14:13:58.470Z,44.19
2017-08-29T14:16:26.792Z,43.51
2017-08-29T14:18:55.119Z,41.65
2017-08-29T14:21:23.521Z,41.59
2017-08-29T14:23:51.841Z,42.71
2017-08-29T14:26:20.202Z,41.15
2017-08-29T14:28:48.533Z,39.21
2017-08-29T14:31:17.665Z,38.34
2017-08-29T14:33:46.016Z,38.75
2017-08-29T14:36:14.340Z,39.02
2017-08-29T14:38:42.800Z,40.74
2017-08-29T14:41:11.138Z,37.59
2017-08-29T14:43:39.492Z,36.32
2017-08-29T14:46:07.820Z,36.48
2017-08-29T14:48:53.810Z,37.38
2017-08-29T14:51:22.132Z,38.96
2017-08-29T14:53:50.482Z,37.25
2017-08-29T14:56:18.833Z,36.34
2017-08-29T14:58:47.198Z,36.01
2017-08-29T15:01:15.630Z,37.21
2017-08-29T15:03:43.962Z,36.90
2017-08-29T15:06:12.342Z,38.04
2017-08-29T15:08:40.680Z,36.38
2017-08-29T15:11:09.042Z,36.05
2017-08-29T15:13:37.401Z,35.26
2017-08-29T15:16:06.610Z,34.00
2017-08-29T15:18:34.995Z,33.71
2017-08-29T15:21:03.405Z,33.49
2017-08-29T15:23:32.017Z,34.42
2017-08-29T15:26:00.426Z,35.56
2017-08-29T15:28:28.801Z,36.35
2017-08-29T15:30:57.168Z,36.83
2017-08-29T15:33:25.550Z,35.64
2017-08-29T15:35:53.955Z,35.40
2017-08-29T15:38:22.277Z,37.37
2017-08-29T15:40:50.661Z,37.64
2017-08-29T15:43:19.130Z,36.62
2017-08-29T15:45:47.480Z,35.67
2017-08-29T15:48:15.877Z,36.83
2017-08-29T15:50:44.300Z,36.76
2017-08-29T15:53:12.692Z,37.90
2017-08-29T15:55:41.052Z,37.49
2017-08-29T15:58:09.415Z,36.99
2017-08-29T16:00:37.771Z,36.75
2017-08-29T16:03:06.158Z,37.40
2017-08-29T16:05:34.546Z,37.91
2017-08-29T16:08:02.904Z,38.83
2017-08-29T16:10:31.303Z,39.15
2017-08-29T16:12:59.645Z,40.41
2017-08-29T16:15:27.989Z,41.17
2017-08-29T16:17:56.357Z,41.67
2017-08-29T16:20:24.687Z,42.12
2017-08-29T16:22:53.098Z,42.61
2017-08-29T16:25:21.499Z,44.21
2017-08-29T16:27:50.242Z,44.74
2017-08-29T16:30:18.566Z,45.69
2017-08-29T16:32:46.922Z,46.44
2017-08-29T16:35:16.008Z,47.07
2017-08-29T16:37:44.332Z,47.20
2017-08-29T16:40:12.683Z,48.11
2017-08-29T16:42:42.856Z,48.63
2017-08-29T16:45:11.262Z,49.76
2017-08-29T16:47:39.595Z,49.90
2017-08-29T16:50:08.243Z,49.84
2017-08-29T16:52:36.581Z,50.82
2017-08-29T16:55:04.940Z,51.63
2017-08-29T16:57:33.298Z,52.58
2017-08-29T17:00:01.631Z,52.58
2017-08-29T17:02:30.011Z,53.95
2017-08-29T17:04:58.439Z,54.46
2017-08-29T17:07:26.809Z,54.84
2017-08-29T17:09:55.187Z,56.06
2017-08-29T17:12:23.533Z,57.07
2017-08-29T17:14:51.947Z,57.68
2017-08-29T17:17:20.287Z,58.17
2017-08-29T17:19:49.430Z,58.56
2017-08-29T17:22:17.765Z,58.21
2017-08-29T17:24:46.133Z,58.83
2017-08-29T17:27:14.481Z,59.57
2017-08-29T17:29:42.880Z,60.23
2017-08-29T17:32:11.259Z,60.33
2017-08-29T17:34:39.632Z,60.65
2017-08-29T17:37:08.005Z,60.69
2017-08-29T17:39:36.428Z,61.24
2017-08-29T17:42:04.778Z,61.77
2017-08-29T17:44:33.118Z,61.54
2017-08-29T17:47:01.471Z,62.29
2017-08-29T17:49:31.094Z,62.69
2017-08-29T17:51:59.851Z,63.04
2017-08-29T17:54:28.194Z,62.91
2017-08-29T17:56:56.525Z,63.64
2017-08-29T17:59:24.923Z,63.81
2017-08-29T18:01:53.259Z,63.96
2017-08-29T18:04:22.051Z,63.87
2017-08-29T18:06:50.416Z,64.05
2017-08-29T18:09:19.148Z,64.39
2017-08-29T18:11:47.497Z,64.25
2017-08-29T18:14:15.844Z,65.30
2017-08-29T18:16:44.225Z,65.94
2017-08-29T18:19:12.565Z,66.24
2017-08-29T18:21:40.911Z,66.43
2017-08-29T18:24:11.079Z,66.44
2017-08-29T18:26:39.717Z,67.38
2017-08-29T18:29:08.070Z,67.99
2017-08-29T18:31:36.411Z,68.63
2017-08-29T18:34:04.777Z,69.23
2017-08-29T18:36:33.122Z,69.36
2017-08-29T18:39:01.484Z,69.66
2017-08-29T18:41:29.824Z,69.74
2017-08-29T18:43:58.505Z,69.74
2017-08-29T18:46:26.871Z,70.09
2017-08-29T18:48:55.280Z,70.61
2017-08-29T18:51:23.628Z,70.90
2017-08-29T18:53:51.953Z,71.03
2017-08-29T18:56:20.548Z,71.43
2017-08-29T18:58:48.906Z,72.22
2017-08-29T19:01:17.324Z,71.80
2017-08-29T19:03:45.697Z,71.91
2017-08-29T19:06:14.049Z,72.23
2017-08-29T19:08:42.455Z,72.47
2017-08-29T19:11:10.797Z,72.11
2017-08-29T19:13:39.145Z,72.56
2017-08-29T19:16:11.275Z,73.12
2017-08-29T19:18:39.933Z,73.44
2017-08-29T19:21:08.277Z,74.00
2017-08-29T19:23:36.629Z,74.56
2017-08-29T19:26:05.011Z,73.99
2017-08-29T19:28:34.272Z,73.96
2017-08-29T19:31:02.689Z,74.61
2017-08-29T19:33:31.068Z,74.63
2017-08-29T19:35:59.719Z,75.59
2017-08-29T19:38:29.236Z,75.74
2017-08-29T19:40:58.055Z,75.42
2017-08-29T19:43:26.425Z,75.30
2017-08-29T19:45:54.772Z,75.81
2017-08-29T19:48:24.413Z,76.22
2017-08-29T19:50:52.795Z,76.30
2017-08-29T19:53:21.178Z,76.90
2017-08-29T19:55:49.555Z,76.85
2017-08-29T19:58:17.972Z,76.76
2017-08-29T20:00:46.336Z,76.72
2017-08-29T20:03:14.674Z,76.58
2017-08-29T20:05:43.451Z,76.91
2017-08-29T20:08:11.790Z,76.44
2017-08-29T20:10:40.146Z,76.62
2017-08-29T20:13:08.504Z,77.19
2017-08-29T20:15:36.839Z,77.71
2017-08-29T20:18:08.370Z,77.20
2017-08-29T20:20:36.722Z,77.70
2017-08-29T20:23:05.079Z,78.06
2017-08-29T20:25:33.481Z,78.25
2017-08-29T20:28:03.028Z,78.42
2017-08-29T20:30:32.293Z,78.34
2017-08-29T20:33:01.030Z,77.87
2017-08-29T20:35:30.486Z,78.31
2017-08-29T20:37:59.084Z,78.37
2017-08-29T20:40:28.002Z,78.53
2017-08-29T20:42:56.979Z,79.13
2017-08-29T20:45:27.173Z,79.43
2017-08-29T20:47:57.490Z,79.80
2017-08-29T20:50:26.289Z,79.98
2017-08-29T20:52:54.625Z,79.69
2017-08-29T20:55:23.788Z,79.26
2017-08-29T20:57:52.167Z,79.08
2017-08-29T21:00:20.941Z,80.07
2017-08-29T21:02:49.273Z,80.27
2017-08-29T21:05:17.641Z,80.52
2017-08-29T21:07:46.358Z,80.47
2017-08-29T21:10:14.721Z,80.14
2017-08-29T21:12:43.128Z,80.47
2017-08-29T21:15:12.254Z,81.05
2017-08-29T21:17:40.586Z,80.34
2017-08-29T21:20:08.945Z,80.74
2017-08-29T21:22:37.297Z,80.73
2017-08-29T21:25:05.646Z,81.03
2017-08-29T21:27:34.013Z,80.91
2017-08-29T21:30:03.129Z,81.16
2017-08-29T21:32:31.473Z,80.87
2017-08-29T21:34:59.813Z,81.11
2017-08-29T21:37:28.165Z,81.47
2017-08-29T21:39:56.508Z,81.87
2017-08-29T21:42:25.050Z,81.90
2017-08-29T21:44:53.385Z,82.21
2017-08-29T21:47:21.769Z,81.96
2017-08-29T21:49:50.109Z,81.30
2017-08-29T21:52:20.517Z,81.72
2017-08-29T21:54:48.861Z,81.73
2017-08-29T21:57:17.210Z,81.95
2017-08-29T21:59:45.565Z,82.23
2017-08-29T22:02:13.928Z,82.43
2017-08-29T22:04:42.294Z,82.79
2017-08-29T22:07:10.652Z,81.95
2017-08-29T22:09:39.029Z,81.70
2017-08-29T22:12:07.424Z,82.11
2017-08-29T22:14:35.789Z,82.53
2017-08-29T22:17:04.174Z,82.59
2017-08-29T22:19:32.514Z,82.56
2017-08-29T22:22:00.880Z,82.84
2017-08-29T22:24:29.240Z,82.52
2017-08-29T22:26:57.571Z,82.87
2017-08-29T22:29:25.996Z,83.27
2017-08-29T22:31:54.368Z,83.12
2017-08-29T22:34:22.725Z,83.20
2017-08-29T22:36:51.061Z,83.00
2017-08-29T22:39:19.409Z,83.28
2017-08-29T22:41:47.773Z,82.77
2017-08-29T22:44:16.569Z,82.88
2017-08-29T22:46:45.709Z,83.67
2017-08-29T22:49:14.058Z,84.02
2017-08-29T22:51:42.413Z,83.75
2017-08-29T22:54:14.274Z,84.06
2017-08-29T22:56:43.491Z,83.56
2017-08-29T22:59:11.840Z,83.44
2017-08-29T23:01:40.186Z,83.77
2017-08-29T23:04:08.565Z,83.45
2017-08-29T23:06:36.881Z,83.93
2017-08-29T23:09:05.223Z,84.33
2017-08-29T23:11:33.979Z,84.39
2017-08-29T23:14:03.092Z,83.99
2017-08-29T23:16:31.436Z,84.40
2017-08-29T23:19:00.495Z,84.75
2017-08-29T23:21:28.856Z,84.82
2017-08-29T23:23:57.197Z,84.82
2017-08-29T23:26:26.038Z,84.41
2017-08-29T23:28:54.388Z,84.64
2017-08-29T23:31:22.748Z,84.60
2017-08-29T23:33:51.103Z,84.16
2017-08-29T23:36:19.432Z,83.72
2017-08-29T23:38:47.796Z,84.66
2017-08-29T23:41:16.158Z,84.83
2017-08-29T23:43:44.545Z,85.12
2017-08-29T23:46:12.869Z,85.47
2017-08-29T23:48:41.223Z,85.39
2017-08-29T23:51:09.568Z,85.71
2017-08-29T23:53:37.969Z,85.64
2017-08-29T23:56:06.321Z,85.68
2017-08-29T23:58:34.677Z,85.97
